Terminal Aerodrome Forecast
Issued by NWS Billings, MT

Home | Current Version | Previous Version | Graphics & Text | Print | Product List | Glossary On
Versions: 1 2 3 4 5 6 7 8 9 10 11 12 13 14 15 16 17 18 19 20 21 22 23 24
000
FTUS45 KBYZ 211731
TAFMLS
TAF
KMLS 211731Z 2118/2218 16010KT P6SM -SHRA FEW045 OVC050
      WS020/28050KT
     FM212000 27020G30KT P6SM VCSH OVC050
     FM220400 32020G30KT P6SM VCSH BKN030
     FM220800 32018KT P6SM -SN BKN025=

USA.gov is the U.S. government's official web portal to all federal, state and local government web resources and services.